Arickaree, Colorado
Current Conditions -  °F | °C
As of 3:55 PM on Monday 20 Oct 2014 (Local Time) from KLIC Reporting Station
Clear Clear  
Wind Chill: 70°   Ceiling: Unl
Heat Index: 70°   Visibility: 10mi
Dew Point: 34°   Wind: 15mph
Humidity: 27%   Direction: 170°S
Pressure: 30.14"   Gusts: 23mph
Location:  39.6673°N, 103.47°W
Report Text: KLIC 202155Z AUTO 17013G20KT 10SM CLR 21/01 A3014 RMK AO2 RAE30 SLP166 P0000 T02110011
Loading
Personal Weather Stations






























Interactive Weather Map
Tropical Storm Tracking
New forecast layout! Learn more

10-Day Weather Forecast

Advertisements
Track Severe Weather on mobile